KVDI/VDI METAR and TAF weather

Enter ICAO airport designator
Station Type Date Time Source
KVDI METAR 2019/06/27 04:15 UTC NOAA

KVDI 270415Z AUTO 00000KT 10SM CLR 24/18 A3016 RMK AO2


Station Type Date Time Source
KVDI Decoded METAR 2019/06/27 04:15 UTC NOAA

Vidalia, Vidalia Municipal Airport, GA, United States (KVDI) 32-11-33N 082-22-19W
Jun 27, 2019 - 12:15 AM EDT / 2019.06.27 0415 UTC
Wind: Calm:0
Visibility: 10 mile(s):0
Sky conditions: clear
Temperature: 75 F (24 C)
Dew Point: 64 F (18 C)
Relative Humidity: 69%
Pressure (altimeter): 30.16 in. Hg (1021 hPa)
ob: KVDI 270415Z AUTO 00000KT 10SM CLR 24/18 A3016 RMK AO2
cycle: 4

Station Type Date Time Source
KVDI TAF UTC NOAA

Error!

Example: see airport list